Weather at Louis Armstrong New Orleans International Airport

Public forecast

Using degrees Fahrenheit for public forecast. Weather courtesy of forecast.io.

Current aviation weather report (METAR) for Louis Armstrong New Orleans International Airport

2024/05/20 21:53 (retrieved 1 hour ago)

KMSY 202153Z 14010KT 10SM SCT060 BKN250 31/21 A2989 RMK AO2 SLP124 T03060211

Aviation forecast (TAF) for Louis Armstrong New Orleans International Airport

2024/05/20 18:22 (retrieved 5 hours ago)

TAF KMSY 201720Z 2018/2124 13007KT P6SM SCT040